Hoosick Junction, New York
Current Conditions -  °F | °C
As of 5:24 AM on Tuesday 27 Jan 2015 (Local Time) from KDDH Reporting Station
Light Snow Light Snow  
Wind Chill: -11°   Ceiling: 4400
Heat Index: -11°   Visibility: 4mi
Dew Point: -14°   Wind: 3mph
Humidity: 77%   Direction: NA
Pressure: 29.76"   Gusts: NA
Location:  42.9226°N, 73.3603°W
Report Text: KDDH 271024Z AUTO VRB03KT 4SM -SN OVC044 M11/M14 A2976 RMK AO2 P0000 T11061139
Loading
Personal Weather Stations






























Interactive Weather Map New forecast layout! Learn more

10-Day Weather Forecast

Advertisements
Track Severe Weather on mobile